Latest Weather Observations for Hobart

IDT60801

Issued at 5:41 am EDT Saturday 19 October 2019 (issued every 10 minutes, with the page automatically refreshed every 10 minutes)

About weather observations | Map of weather stations | Latest weather observations for TAS | Other Formats
Station Details ID: 094029 Name: HOBART (ELLERSLIE ROAD) Lat: -42.89 Lon: 147.33 Height: 50.5 m
Data from the previous 72 hours. | See also: Recent months at Hobart
Date/Time
EDT
Temp
°C
App
Temp
°C
Dew
Point
°C
Rel
Hum
%
Delta-T
°C
Wind Press
QNH
hPa
Press
MSL
hPa
Rain since
9am
mm
Dir  Spd
km/h
Gust
km/h
Spd
kts
Gust
kts
19/05:30am 6.3 1.2 1.0 69 2.1 N 17 28 9 15 1001.8 1001.8 1.2
19/05:00am 6.3 1.6 1.2 70 2.0 N 15 20 8 11 1002.4 1002.4 1.2
19/04:30am 6.6 1.0 1.1 68 2.2 N 20 30 11 16 1002.2 1002.2 1.2
19/04:00am 6.7 1.0 0.6 65 2.4 N 20 39 11 21 1002.1 1002.1 1.2
19/03:30am 6.5 -0.3 0.6 66 2.3 N 26 43 14 23 1002.1 1002.1 1.2
19/03:00am 6.5 0.4 0.4 65 2.4 NNW 22 32 12 17 1002.1 1002.1 1.2
19/02:30am 6.6 0.1 0.5 65 2.4 N 24 35 13 19 1002.3 1002.3 1.2
19/02:00am 7.0 0.9 0.2 62 2.7 N 22 32 12 17 1002.3 1002.3 1.2
19/01:30am 6.8 1.6 -0.2 61 2.7 N 17 24 9 13 1002.5 1002.5 1.2
19/01:00am 6.7 1.0 0.6 65 2.4 NNW 20 30 11 16 1002.3 1002.3 1.2
19/12:30am 7.2 1.4 0.0 60 2.8 NW 20 32 11 17 1002.4 1002.4 1.2
19/12:00am 7.0 1.3 0.7 64 2.5 NNW 20 37 11 20 1002.3 1002.3 1.2
 
Date/Time
EDT
Temp
°C
App
Temp
°C
Dew
Point
°C
Rel
Hum
%
Delta-T
°C
Wind Press
QNH
hPa
Press
MSL
hPa
Rain since
9am
mm
Dir  Spd
km/h
Gust
km/h
Spd
kts
Gust
kts
18/11:30pm 6.8 0.6 2.3 73 1.9 NW 24 33 13 18 1002.2 1002.2 1.0
18/11:00pm 7.4 0.7 1.5 66 2.4 NW 26 37 14 20 1002.2 1002.2 1.0
18/10:30pm 8.0 0.9 1.4 63 2.7 NNW 28 41 15 22 1001.6 1001.6 1.0
18/10:00pm 8.1 1.0 1.3 62 2.8 NW 28 52 15 28 1001.6 1001.6 1.0
18/09:30pm 8.2 1.1 1.4 62 2.8 NW 28 46 15 25 1001.5 1001.5 1.0
18/09:28pm 8.2 1.1 1.1 61 2.9 NNW 28 46 15 25 1001.4 1001.4 1.0
18/09:00pm 8.6 1.2 2.0 63 2.8 NW 30 43 16 23 1001.3 1001.3 1.0
18/08:30pm 9.0 1.1 2.3 63 2.8 NW 33 57 18 31 1000.4 1000.4 1.0
18/08:08pm 9.3 2.5 2.9 64 2.7 WNW 28 61 15 33 999.7 999.7 1.0
18/08:00pm 9.1 3.4 4.9 75 1.9 NW 24 35 13 19 1000.0 1000.0 1.0
18/07:30pm 9.8 5.1 5.0 72 2.2 NW 19 28 10 15 999.1 999.1 0.6
18/07:00pm 10.7 4.1 4.4 65 2.8 NW 28 43 15 23 998.7 998.7 0.6
18/06:37pm 11.7 4.2 3.2 56 3.7 NW 32 50 17 27 998.2 998.2 0.6
18/06:30pm 11.9 6.0 3.9 58 3.6 NNW 24 48 13 26 998.1 998.1 0.6
18/06:00pm 12.0 5.0 4.0 58 3.6 NW 30 50 16 27 998.0 998.0 0.6
18/05:40pm 12.6 6.0 4.1 56 3.9 NW 28 48 15 26 998.0 998.0 0.6
18/05:30pm 13.1 8.3 5.5 60 3.6 NW 20 37 11 20 997.9 997.9 0.6
18/05:00pm 12.3 7.1 7.4 72 2.4 WNW 24 35 13 19 998.1 998.1 0.4
18/04:39pm 13.2 7.1 6.8 65 3.1 WNW 28 52 15 28 997.6 997.6 0.0
18/04:30pm 14.3 9.3 6.6 60 3.7 WNW 22 43 12 23 997.5 997.5 0.0
18/04:00pm 15.0 7.7 7.1 59 3.9 WNW 35 59 19 32 996.6 996.6 0.0
18/03:34pm 16.7 10.4 5.9 49 5.2 NW 28 50 15 27 996.3 996.3 0.0
18/03:30pm 16.9 11.4 5.8 48 5.4 NW 24 46 13 25 996.3 996.3 0.0
18/03:15pm 16.7 9.4 5.3 47 5.5 NNW 33 52 18 28 996.4 996.4 0.0
18/03:00pm 17.5 11.1 5.1 44 6.0 NW 28 44 15 24 996.6 996.6 0.0
18/02:30pm 19.2 11.8 4.2 37 7.2 NNW 32 54 17 29 996.8 996.8 0.0
18/02:00pm 17.8 9.3 2.9 37 6.9 NW 37 57 20 31 997.5 997.5 0.0
18/01:30pm 18.5 10.8 3.2 36 7.1 NW 33 54 18 29 998.2 998.2 0.0
18/01:00pm 18.8 11.8 4.2 38 7.0 NW 30 56 16 30 999.0 999.0 0.0
18/12:30pm 17.8 10.2 3.7 39 6.6 NW 33 65 18 35 999.8 999.8 0.0
18/12:00pm 16.1 8.3 2.9 41 6.0 NNW 33 52 18 28 1001.1 1001.1 0.0
18/11:39am 15.9 8.3 3.0 42 5.9 NNW 32 50 17 27 1001.6 1001.6 0.0
18/11:30am 16.0 8.4 3.1 42 5.9 NNW 32 48 17 26 1001.8 1001.8 0.0
18/11:00am 16.7 9.1 3.1 40 6.3 NNW 32 50 17 27 1002.2 1002.2 0.0
18/10:44am 16.1 8.9 3.2 42 5.9 NNW 30 50 16 27 1002.5 1002.5 0.0
18/10:30am 15.4 7.7 3.5 45 5.4 NNW 33 50 18 27 1002.7 1002.7 0.0
18/10:22am 15.2 8.4 3.0 44 5.5 NNW 28 50 15 27 1002.8 1002.8 0.0
18/10:00am 15.2 8.9 4.0 47 5.2 NNW 26 41 14 22 1003.5 1003.5 0.0
18/09:30am 14.5 7.4 3.6 48 5.0 NW 30 54 16 29 1004.1 1004.1 0.0
18/09:28am 14.3 7.5 3.2 47 5.0 NW 28 54 15 29 1004.1 1004.1 0.0
18/09:00am 13.7 7.0 3.8 51 4.5 NNW 28 43 15 23 1004.4 1004.4 0.0
18/08:30am 12.5 6.2 3.7 55 3.9 NNW 26 46 14 25 1004.9 1004.9 0.0
18/08:22am 12.2 5.5 3.4 55 3.9 NNW 28 46 15 25 1005.1 1005.1 0.0
18/08:00am 11.6 5.3 3.6 58 3.6 NW 26 37 14 20 1005.3 1005.3 0.0
18/07:30am 10.6 6.4 3.9 63 3.0 NNW 15 30 8 16 1005.7 1005.7 0.0
18/07:00am 8.6 5.6 4.2 74 1.9 N 9 15 5 8 1005.9 1005.9 0.0
18/06:30am 7.1 4.5 4.1 81 1.3 NW 7 9 4 5 1006.1 1006.1 0.0
18/06:00am 7.5 5.4 4.1 79 1.5 N 4 7 2 4 1006.1 1006.1 0.0
18/05:30am 7.5 4.9 4.1 79 1.5 NNW 7 13 4 7 1006.2 1006.2 0.0
18/05:00am 8.0 4.7 4.4 78 1.6 NNW 11 15 6 8 1006.3 1006.3 0.0
18/04:30am 8.2 4.9 4.4 77 1.7 NW 11 15 6 8 1006.7 1006.7 0.0
18/04:00am 8.8 4.4 4.8 76 1.8 NNW 17 26 9 14 1006.6 1006.6 0.0
18/03:30am 9.4 4.1 5.0 74 2.0 NNW 22 32 12 17 1007.0 1007.0 0.0
18/03:00am 9.2 5.0 5.6 78 1.6 N 17 30 9 16 1007.5 1007.5 0.0
18/02:30am 9.4 4.7 6.1 80 1.5 NNW 20 28 11 15 1007.5 1007.5 0.0
18/02:00am 8.7 4.6 6.3 85 1.1 NNW 17 24 9 13 1007.8 1007.8 0.0
18/01:30am 9.2 4.6 6.5 83 1.3 NNW 20 28 11 15 1008.3 1008.4 0.0
18/01:00am 8.5 5.0 5.6 82 1.3 WNW 13 20 7 11 1008.5 1008.6 0.0
18/12:30am 9.2 7.0 6.3 82 1.3 N 7 11 4 6 1008.5 1008.6 0.0
18/12:00am 9.6 6.0 6.9 83 1.3 NW 15 22 8 12 1008.6 1008.7 0.0
 
Date/Time
EDT
Temp
°C
App
Temp
°C
Dew
Point
°C
Rel
Hum
%
Delta-T
°C
Wind Press
QNH
hPa
Press
MSL
hPa
Rain since
9am
mm
Dir  Spd
km/h
Gust
km/h
Spd
kts
Gust
kts
17/11:30pm 8.9 6.7 6.3 84 1.2 WNW 7 9 4 5 1008.6 1008.7 0.0
17/11:00pm 9.0 6.8 6.1 82 1.3 NW 7 11 4 6 1008.7 1008.8 0.0
17/10:30pm 9.4 7.4 6.3 81 1.4 WNW 6 11 3 6 1008.7 1008.8 0.0
17/10:00pm 9.8 6.4 5.8 76 1.8 W 13 17 7 9 1008.8 1008.9 0.0
17/09:30pm 9.9 6.5 5.7 75 1.9 WSW 13 17 7 9 1008.7 1008.8 0.0
17/09:00pm 10.2 6.9 6.2 76 1.9 WSW 13 17 7 9 1008.4 1008.5 0.0
17/08:30pm 10.5 7.6 6.5 76 1.9 WSW 11 13 6 7 1008.2 1008.3 0.0
17/08:00pm 11.0 8.7 7.5 79 1.7 SW 9 13 5 7 1007.9 1007.9 0.0
17/07:30pm 11.8 9.1 7.5 75 2.1 SSW 11 17 6 9 1007.5 1007.5 0.0
17/07:00pm 12.3 9.6 7.4 72 2.4 SSW 11 17 6 9 1007.1 1007.1 0.0
17/06:30pm 13.0 9.4 6.6 65 3.1 S 15 20 8 11 1006.7 1006.7 0.0
17/06:00pm 13.5 8.9 5.7 59 3.7 SSE 19 26 10 14 1006.4 1006.4 0.0
17/05:30pm 13.6 9.1 6.9 64 3.2 SE 20 28 11 15 1006.2 1006.2 0.0
17/05:00pm 13.7 8.7 6.3 61 3.6 SE 22 30 12 16 1006.0 1006.0 0.0
17/04:30pm 13.2 8.0 7.2 67 2.9 SE 24 32 13 17 1005.9 1005.9 0.0
17/04:00pm 13.6 8.0 7.2 65 3.1 SE 26 35 14 19 1005.7 1005.7 0.0
17/03:30pm 14.5 9.8 7.8 64 3.3 SSE 22 33 12 18 1005.6 1005.6 0.0
17/03:00pm 14.5 9.7 8.7 68 2.9 ESE 24 32 13 17 1005.7 1005.7 0.0
17/02:30pm 14.3 9.2 7.8 65 3.2 ESE 24 35 13 19 1006.0 1006.0 0.0
17/02:00pm 15.0 10.5 6.8 58 4.0 ESE 20 28 11 15 1005.9 1005.9 0.0
17/01:30pm 14.6 9.9 6.2 57 4.0 ESE 20 28 11 15 1006.0 1006.0 0.0
17/01:00pm 15.3 11.7 6.6 56 4.3 ESE 15 22 8 12 1006.2 1006.2 0.0
17/12:30pm 14.4 10.7 6.3 58 3.9 ESE 15 22 8 12 1006.4 1006.4 0.0
17/12:00pm 14.1 10.0 6.0 58 3.9 ESE 17 24 9 13 1006.5 1006.5 0.0
17/11:30am 13.7 9.6 6.1 60 3.6 ESE 17 20 9 11 1006.6 1006.6 0.0
17/11:00am 13.7 10.4 6.6 62 3.4 SE 13 19 7 10 1006.7 1006.7 0.0
17/10:30am 12.6 9.6 5.8 63 3.2 E 11 19 6 10 1006.9 1006.9 0.0
17/10:00am 12.3 9.7 6.1 66 2.9 NE 9 15 5 8 1007.0 1007.0 0.0
17/09:30am 11.1 8.9 6.0 71 2.4 NNE 7 11 4 6 1007.0 1007.0 0.0
17/09:00am 9.7 6.7 5.9 77 1.8 N 11 15 6 8 1006.9 1006.9 0.0
17/08:30am 8.2 5.5 5.8 85 1.1 N 9 13 5 7 1007.0 1007.0 0.0
17/08:00am 5.8 2.6 4.9 94 0.4 NNW 11 15 6 8 1007.1 1007.1 0.0
17/07:30am 5.0 1.3 4.3 95 0.3 NNW 13 17 7 9 1006.9 1006.9 0.0
17/07:00am 4.8 2.3 3.8 93 0.4 NW 6 11 3 6 1006.6 1006.6 0.0
17/06:30am 4.7 1.6 3.7 93 0.4 NW 9 11 5 6 1006.6 1006.6 0.0
17/06:00am 4.7 2.1 3.4 91 0.5 NW 6 9 3 5 1006.4 1006.4 0.0
17/05:30am 5.0 2.3 3.7 91 0.5 NW 7 9 4 5 1006.4 1006.4 0.0
17/05:00am 5.1 3.0 3.8 91 0.5 WNW 4 13 2 7 1006.4 1006.4 0.0
17/04:30am 5.3 2.8 3.8 90 0.6 NW 6 11 3 6 1006.6 1006.6 0.0
17/04:00am 5.6 2.9 3.9 89 0.7 W 7 9 4 5 1007.0 1007.0 0.0
17/03:30am 6.1 3.7 4.4 89 0.7 NW 6 9 3 5 1007.3 1007.3 0.0
17/03:00am 6.3 3.9 4.5 88 0.8 W 6 7 3 4 1007.4 1007.4 0.0
17/02:30am 6.0 3.4 4.2 88 0.8 WNW 7 13 4 7 1007.5 1007.5 0.0
17/02:00am 6.4 4.1 4.6 88 0.8 NNW 6 13 3 7 1007.7 1007.7 0.0
17/01:30am 6.7 3.8 4.4 85 1.0 W 9 13 5 7 1007.9 1007.9 0.0
17/01:00am 6.7 3.0 4.4 85 1.0 W 13 15 7 8 1008.0 1008.1 0.0
17/12:30am 6.9 4.4 4.6 85 1.0 W 7 9 4 5 1008.2 1008.3 0.0
17/12:00am 7.4 4.9 4.5 82 1.3 W 7 9 4 5 1008.3 1008.4 0.0
 
Date/Time
EDT
Temp
°C
App
Temp
°C
Dew
Point
°C
Rel
Hum
%
Delta-T
°C
Wind Press
QNH
hPa
Press
MSL
hPa
Rain since
9am
mm
Dir  Spd
km/h
Gust
km/h
Spd
kts
Gust
kts
16/11:30pm 8.3 6.7 4.7 78 1.6 W 2 9 1 5 1008.3 1008.4 0.0
16/11:00pm 9.0 7.4 4.4 73 2.0 WSW 2 7 1 4 1008.4 1008.5 0.0
16/10:30pm 9.7 6.0 4.5 70 2.3 SW 13 22 7 12 1008.4 1008.5 0.0
16/10:00pm 9.4 4.5 5.0 74 2.0 SW 20 32 11 17 1008.4 1008.5 0.0
16/09:30pm 8.9 4.3 5.8 81 1.4 SSW 19 26 10 14 1008.5 1008.6 0.0
16/09:00pm 9.5 4.8 5.9 78 1.7 SSW 20 30 11 16 1008.4 1008.5 0.0
16/08:30pm 10.4 6.3 6.4 76 1.9 SSW 17 28 9 15 1008.4 1008.5 0.0
16/08:00pm 11.0 7.3 6.4 73 2.2 SSW 15 22 8 12 1008.2 1008.3 0.0
16/07:30pm 11.0 8.2 7.1 77 1.9 SSE 11 17 6 9 1007.9 1007.9 0.0
16/07:00pm 11.9 9.4 6.4 69 2.6 S 9 15 5 8 1007.7 1007.7 0.0
16/06:30pm 12.3 8.6 6.4 67 2.8 SW 15 24 8 13 1007.4 1007.4 0.0
16/06:00pm 12.7 9.8 6.3 65 3.1 SSW 11 15 6 8 1007.5 1007.5 0.0
16/05:30pm 13.2 9.9 6.5 64 3.2 ESE 13 19 7 10 1007.3 1007.3 0.0
16/05:00pm 13.7 11.0 5.6 58 3.8 SE 9 13 5 7 1007.3 1007.3 0.0
16/04:30pm 13.8 10.8 5.9 59 3.8 SE 11 17 6 9 1007.2 1007.2 0.0
16/04:00pm 14.0 9.8 5.6 57 4.0 ENE 17 24 9 13 1007.3 1007.3 0.0
16/03:30pm 14.1 9.3 4.4 52 4.5 ESE 19 26 10 14 1007.5 1007.5 0.0
16/03:00pm 13.9 8.3 3.4 49 4.7 SE 22 32 12 17 1007.7 1007.7 0.0
16/02:30pm 16.1 10.9 -0.2 33 6.9 NNE 17 28 9 15 1007.6 1007.6 0.0
16/02:00pm 17.1 11.0 0.7 33 7.2 N 22 33 12 18 1007.9 1007.9 0.0
16/01:30pm 16.5 10.4 0.6 34 6.9 N 22 35 12 19 1008.3 1008.4 0.0
16/01:00pm 15.7 10.0 0.7 36 6.5 N 20 32 11 17 1008.6 1008.7 0.0
16/12:30pm 15.9 10.2 -0.8 32 7.0 NW 19 26 10 14 1009.0 1009.1 0.0
16/12:00pm 15.1 10.9 1.6 40 5.9 NNW 13 24 7 13 1009.6 1009.7 0.0
16/11:30am 14.7 9.5 3.5 47 5.1 NNW 20 32 11 17 1010.2 1010.3 0.0
16/11:00am 13.8 9.1 5.2 56 4.0 NNW 19 28 10 15 1010.8 1010.8 0.0
16/10:30am 12.3 7.6 5.0 61 3.4 NNW 19 24 10 13 1011.2 1011.2 0.0
16/10:00am 10.4 5.6 5.6 72 2.2 NNW 20 28 11 15 1011.6 1011.6 0.0
16/09:30am 9.3 5.0 5.3 76 1.8 N 17 24 9 13 1011.9 1011.9 0.0
16/09:00am 7.5 3.6 5.3 86 1.0 NNW 15 20 8 11 1012.0 1012.0 7.0
16/08:30am 5.8 1.5 5.1 95 0.3 N 17 26 9 14 1012.2 1012.2 7.0
16/08:00am 5.4 1.0 4.8 96 0.3 NNW 17 22 9 12 1012.2 1012.2 7.0
16/07:30am 5.0 0.0 4.6 97 0.2 NW 20 28 11 15 1012.3 1012.3 7.0
16/07:00am 4.9 0.5 4.5 97 0.2 NW 17 24 9 13 1012.2 1012.2 7.0
16/06:30am 4.6 -0.3 4.2 97 0.2 NW 19 26 10 14 1012.2 1012.2 7.0
16/06:00am 4.5 -0.6 3.9 96 0.3 NNW 20 26 11 14 1012.0 1012.0 7.0

Other formats

Comma delimited format used in spreadsheet applications
http://www.bom.gov.au/fwo/IDT60801/IDT60801.94970.axf

JavaScript Object Notation format (JSON) in row-major order
http://www.bom.gov.au/fwo/IDT60801/IDT60801.94970.json

Data quality

Most of these data are generated automatically and are frequently updated. Quality checks on data are not normally performed. It is possible for incorrect values to appear. Refer to information at About Latest Weather Observations and please check the disclaimer before using these data.